x

Buoy E01 - Central Maine Shelf (44032) Wave Buoy

10:04 - Sun 26th Mar 2017 All times are EDT. -4 hours from GMT.

  • Sig Wave height 2.0ft
  • Peak Period 8s
  • Wind
    9mph, 11mph gusts
  • Sea Temp 38°f
  • Aire Temp 34°f
  • Sea Pressure 1031.6mb
  • Buoy E01 - Central Maine Shelf
  • Buoy E01 - Central Maine Shelf

More Historic Weather Station data

Upgrade to MSW Pro to gain access to the past 30 days of data for over 8000 Wavebouys and Weather Stations around the globe.

Join Pro

Comparision Forecast

View Surf forecast
   
dom 03/26 10:04 2ft 8s 9 11 mph 1031.6mb 38f 34f
9:04 2ft 8s 7 9 mph 1032.2mb 38f 33f
8:04 2ft 8s 11 13 mph 1032.8mb 38f 33f
7:04 2ft 8s 9 13 mph 1033.2mb 38f 33f
6:04 2.5ft 8s 9 11 mph 1033.5mb 38f 32f
5:04 2ft 8s 9
mph
1033.1mb 38f 32f
4:04 2.5ft 8s 9 11 mph 1033.3mb 38f 31f
3:04 2.5ft 8s 9 11 mph 1034.1mb 38f 31f
2:04 2.5ft 6s 9 11 mph 1034.5mb 38f 30f
1:04 2.5ft 11s 7 9 mph 1035.1mb 38f 29f
12:04 2.5ft 6s 9 11 mph 1035.7mb 38f 29f
11:04 3ft 8s 11 16 mph 1035.6mb 38f 29f
10:04 3.5ft 8s 16 20 mph 1035.4mb 37f 29f
9:04 2.5ft 4s 16 18 mph 1035.4mb 37f 29f
8:04 3ft 8s 18 20 mph 1035mb 37f 30f
7:04 2.5ft 8s 18 22 mph 1034.3mb 37f 30f
6:04 1.6ft 3s 18 20 mph 1033.9mb 37f 32f
5:04 2.5ft 8s 16 18 mph 1033.2mb 37f 32f
4:04 2.5ft 8s 16 18 mph 1032.2mb 37f 33f
3:04 2ft 3s 18 22 mph 1031.5mb 37f 34f
2:04 3.5ft 3s 20 22 mph 1030.6mb 37f 35f
1:04 3.5ft 8s 20 22 mph 1030.4mb 37f 36f
12:04 3ft 8s 16 18 mph 1030.1mb 37f 37f
sáb 03/25 11:04 2.5ft 8s 13 16 mph 1029.1mb 37f 37f
10:04 3.5ft 8s 11 13 mph 1028.3mb 37f 37f
9:04 2.5ft 8s 11 13 mph 1027.6mb 37f 37f
8:04 2.5ft 8s 11 13 mph 1026.7mb 37f 37f
7:04 2.5ft 8s 9 11 mph 1025.7mb 37f 37f
6:04 2ft 8s 9 11 mph 1025.3mb 37f 37f
5:04 1.6ft 6s 11
mph
1024.8mb 37f 37f
4:04 1.6ft 6s 9
mph
1024.6mb 38f 37f
3:04 1.6ft 6s 7 9 mph 1024.5mb 38f 37f
2:04 1.6ft 6s 4 7 mph 1024.3mb 37f 37f
1:04 2ft 6s 7 9 mph 1024.1mb 37f 37f
12:04 2.5ft 6s 11 13 mph 1023.2mb 37f 36f
11:04 2.5ft 6s 13
mph
1023.3mb 37f 36f
10:04 2.5ft 6s 13 18 mph 1023.2mb 37f 35f
9:04 3ft 6s 16 18 mph 1022.6mb 37f 34f
8:04 3ft 6s 13 16 mph 1021.4mb 37f 34f
7:04 3.5ft 8s 16 18 mph 1020.3mb 37f 34f
6:04 3.5ft 6s 13 16 mph 1019.2mb 37f 35f
5:04 4.5ft 8s 13
mph
1018.9mb 37f 35f
4:04 4ft 6s 11 13 mph 1018.3mb 37f 34f
3:04 4.5ft 8s 9 11 mph 1017.6mb 37f 34f
2:04 5ft 8s 11 13 mph 1017.8mb 37f 35f
1:04 6ft 8s 11 13 mph 1017.2mb 37f 35f
12:04 5.5ft 8s 13 16 mph 1017.5mb 37f 36f
vie 03/24 11:04 7ft 8s 11 13 mph 1017mb 37f 36f
10:04 7ft 8s 11 13 mph 1017.3mb 37f 37f
9:04 7.5ft 8s 13 16 mph 1018.1mb 37f 37f
8:04 8ft 6s 20 25 mph 1018.1mb 37f 37f
7:04 8ft 8s 22 27 mph 1018.8mb 37f 36f
6:04 7.5ft 6s 22 29 mph 1019.7mb 37f 34f
5:04 8ft 6s 27 34 mph 1021.2mb 37f 34f
4:04 6ft 5s 27 31 mph 1022.5mb 37f 33f
3:04 5.5ft 5s 27 34 mph 1024mb 37f 33f
2:04 5.5ft 5s 25 29 mph 1025.7mb 37f 32f
1:04 4.5ft 5s 22 29 mph 1028mb 37f 31f
12:04 4ft 5s 16 18 mph 1029.1mb 37f 32f
11:04 3.5ft 4s 22 29 mph 1030.2mb 37f 33f
10:04 2.5ft 4s 20 25 mph 1030.4mb 37f 34f
9:04 1.6ft 3s 18 20 mph 1031.2mb 37f 33f
8:04 1ft 2s 16 20 mph 1031.3mb 37f 32f
7:04 0.7ft  -  11 13 mph 1032.2mb 37f 31f
6:04 0.7ft  -  7
mph
1032mb 37f 30f
5:04 0.7ft  -  4
mph
1032.5mb 37f 30f
4:04 0.7ft  -  2
mph
1032.1mb 37f 29f
3:04 1ft 3s 7 9 mph 1032.6mb 37f 29f
2:04 1.3ft 3s 13 16 mph 1033.4mb 37f 29f
1:04 1.3ft 3s 13 16 mph 1033.1mb 37f 29f
12:04 1.6ft 3s 11 13 mph 1032.5mb 37f 29f
jue 03/23 11:04 2.5ft 3s 13 18 mph 1032.8mb 37f 29f
10:04 2.5ft 3s 20 22 mph 1032.2mb 37f 29f
9:04 2.5ft 4s 20 25 mph 1031.5mb 37f 30f
8:04 3ft 4s 20 25 mph 1030.1mb 37f 31f
7:04 3ft 4s 20 25 mph 1028.9mb 37f 31f
6:04 3.5ft 4s 25 31 mph 1028mb 37f 32f
5:04 3.5ft 4s 22 27 mph 1027.5mb 37f 31f
4:04 3ft 4s 18 22 mph 1027.3mb 37f 30f
3:04 4ft 4s 22 29 mph 1027.1mb 37f 29f
2:04 3.5ft 4s 22 27 mph 1027.1mb 37f 27f
1:04 3.5ft 4s 22 27 mph 1027.7mb 37f 26f
12:04 3.5ft 4s 22 29 mph 1028.1mb 37f 23f
11:04 3.5ft 4s 20 25 mph 1028.3mb 37f 22f
10:04 3.5ft 4s 22 27 mph 1028.1mb 37f 20f
9:04 3.5ft 4s 20 29 mph 1028mb 37f 19f
8:04 3.5ft 4s 22 31 mph 1027.9mb 38f 18f
7:04 4.5ft 4s 27 31 mph 1026.9mb 38f 18f
6:04 4.5ft 4s 27 34 mph 1025.9mb 38f 18f
5:04 4.5ft 5s 27 31 mph 1025.3mb 37f 18f
4:04 5ft 5s 27 34 mph 1024.5mb 37f 19f